sensor_id;sensor_type;location;lat;lon;timestamp;P1;durP1;ratioP1;P2;durP2;ratioP2
21636;SDS011;10980;49.596;6.142;2023-08-31T00:02:08;6.97;;;3.05;;
21636;SDS011;10980;49.596;6.142;2023-08-31T00:05:36;6.45;;;2.78;;
21636;SDS011;10980;49.596;6.142;2023-08-31T00:09:02;5.10;;;2.80;;
21636;SDS011;10980;49.596;6.142;2023-08-31T00:12:26;8.32;;;3.15;;
21636;SDS011;10980;49.596;6.142;2023-08-31T00:15:49;5.23;;;2.90;;
21636;SDS011;10980;49.596;6.142;2023-08-31T00:19:14;6.57;;;2.87;;
21636;SDS011;10980;49.596;6.142;2023-08-31T00:22:36;7.20;;;3.27;;
21636;SDS011;10980;49.596;6.142;2023-08-31T00:25:59;4.13;;;2.80;;
21636;SDS011;10980;49.596;6.142;2023-08-31T00:29:24;5.30;;;2.90;;
21636;SDS011;10980;49.596;6.142;2023-08-31T00:32:50;6.43;;;2.90;;
21636;SDS011;10980;49.596;6.142;2023-08-31T00:36:17;8.07;;;2.97;;
21636;SDS011;10980;49.596;6.142;2023-08-31T00:39:39;8.27;;;2.97;;
21636;SDS011;10980;49.596;6.142;2023-08-31T00:43:02;4.80;;;2.70;;
21636;SDS011;10980;49.596;6.142;2023-08-31T00:46:25;4.83;;;2.57;;
21636;SDS011;10980;49.596;6.142;2023-08-31T00:49:50;6.77;;;3.30;;
21636;SDS011;10980;49.596;6.142;2023-08-31T00:53:15;5.00;;;2.87;;
21636;SDS011;10980;49.596;6.142;2023-08-31T00:56:38;6.73;;;3.00;;
21636;SDS011;10980;49.596;6.142;2023-08-31T01:00:03;6.20;;;3.03;;
21636;SDS011;10980;49.596;6.142;2023-08-31T01:10:48;6.07;;;3.10;;
21636;SDS011;10980;49.596;6.142;2023-08-31T01:14:34;5.40;;;2.80;;
21636;SDS011;10980;49.596;6.142;2023-08-31T01:18:21;5.63;;;3.40;;
21636;SDS011;10980;49.596;6.142;2023-08-31T01:21:46;6.20;;;3.03;;
21636;SDS011;10980;49.596;6.142;2023-08-31T01:25:12;4.47;;;2.80;;
21636;SDS011;10980;49.596;6.142;2023-08-31T01:28:34;5.13;;;2.70;;
21636;SDS011;10980;49.596;6.142;2023-08-31T01:31:58;9.83;;;2.70;;
21636;SDS011;10980;49.596;6.142;2023-08-31T01:35:20;6.47;;;3.47;;
21636;SDS011;10980;49.596;6.142;2023-08-31T01:38:45;7.07;;;3.43;;
21636;SDS011;10980;49.596;6.142;2023-08-31T01:42:13;7.10;;;2.97;;
21636;SDS011;10980;49.596;6.142;2023-08-31T01:45:39;12.03;;;3.20;;
21636;SDS011;10980;49.596;6.142;2023-08-31T01:49:05;6.67;;;2.80;;
21636;SDS011;10980;49.596;6.142;2023-08-31T01:52:28;5.80;;;2.90;;
21636;SDS011;10980;49.596;6.142;2023-08-31T01:55:52;4.63;;;2.87;;
21636;SDS011;10980;49.596;6.142;2023-08-31T01:59:15;6.93;;;2.60;;
21636;SDS011;10980;49.596;6.142;2023-08-31T02:02:38;6.37;;;2.90;;
21636;SDS011;10980;49.596;6.142;2023-08-31T02:06:00;5.40;;;2.60;;
21636;SDS011;10980;49.596;6.142;2023-08-31T02:09:27;5.33;;;2.67;;
21636;SDS011;10980;49.596;6.142;2023-08-31T02:12:50;7.63;;;2.90;;
21636;SDS011;10980;49.596;6.142;2023-08-31T02:16:12;4.70;;;2.37;;
21636;SDS011;10980;49.596;6.142;2023-08-31T02:19:34;7.10;;;3.07;;
21636;SDS011;10980;49.596;6.142;2023-08-31T02:22:57;5.10;;;2.67;;
21636;SDS011;10980;49.596;6.142;2023-08-31T02:26:21;5.87;;;2.97;;
21636;SDS011;10980;49.596;6.142;2023-08-31T02:29:43;4.13;;;2.23;;
21636;SDS011;10980;49.596;6.142;2023-08-31T02:33:06;4.30;;;2.93;;
21636;SDS011;10980;49.596;6.142;2023-08-31T02:36:30;7.87;;;2.57;;
21636;SDS011;10980;49.596;6.142;2023-08-31T02:39:52;4.83;;;2.50;;
21636;SDS011;10980;49.596;6.142;2023-08-31T02:43:15;3.67;;;2.57;;
21636;SDS011;10980;49.596;6.142;2023-08-31T02:46:37;5.43;;;2.60;;
21636;SDS011;10980;49.596;6.142;2023-08-31T02:50:00;5.00;;;2.60;;
21636;SDS011;10980;49.596;6.142;2023-08-31T02:53:23;4.20;;;2.47;;
21636;SDS011;10980;49.596;6.142;2023-08-31T02:56:45;5.20;;;2.53;;
21636;SDS011;10980;49.596;6.142;2023-08-31T03:00:09;4.60;;;2.50;;
21636;SDS011;10980;49.596;6.142;2023-08-31T03:03:34;5.20;;;2.70;;
21636;SDS011;10980;49.596;6.142;2023-08-31T03:06:57;5.60;;;2.43;;
21636;SDS011;10980;49.596;6.142;2023-08-31T03:10:23;5.67;;;3.00;;
21636;SDS011;10980;49.596;6.142;2023-08-31T03:13:46;5.43;;;2.87;;
21636;SDS011;10980;49.596;6.142;2023-08-31T03:17:08;5.53;;;2.63;;
21636;SDS011;10980;49.596;6.142;2023-08-31T03:20:30;4.53;;;2.30;;
21636;SDS011;10980;49.596;6.142;2023-08-31T03:23:54;4.87;;;2.43;;
21636;SDS011;10980;49.596;6.142;2023-08-31T03:27:16;4.30;;;2.60;;
21636;SDS011;10980;49.596;6.142;2023-08-31T03:30:42;3.90;;;2.27;;
21636;SDS011;10980;49.596;6.142;2023-08-31T03:34:06;3.80;;;2.43;;
21636;SDS011;10980;49.596;6.142;2023-08-31T03:37:32;5.97;;;2.60;;
21636;SDS011;10980;49.596;6.142;2023-08-31T03:40:55;4.07;;;2.60;;
21636;SDS011;10980;49.596;6.142;2023-08-31T03:44:20;3.70;;;2.20;;
21636;SDS011;10980;49.596;6.142;2023-08-31T03:47:44;3.40;;;2.20;;
21636;SDS011;10980;49.596;6.142;2023-08-31T03:51:07;3.47;;;2.20;;
21636;SDS011;10980;49.596;6.142;2023-08-31T03:54:30;3.27;;;2.00;;
21636;SDS011;10980;49.596;6.142;2023-08-31T03:57:55;3.60;;;2.30;;
21636;SDS011;10980;49.596;6.142;2023-08-31T04:01:17;3.50;;;2.20;;
21636;SDS011;10980;49.596;6.142;2023-08-31T04:04:40;3.03;;;1.93;;
21636;SDS011;10980;49.596;6.142;2023-08-31T04:08:03;3.93;;;2.20;;
21636;SDS011;10980;49.596;6.142;2023-08-31T04:11:28;4.33;;;2.30;;
21636;SDS011;10980;49.596;6.142;2023-08-31T04:14:51;3.73;;;2.10;;
21636;SDS011;10980;49.596;6.142;2023-08-31T04:18:13;3.50;;;2.07;;
21636;SDS011;10980;49.596;6.142;2023-08-31T04:21:35;4.63;;;2.17;;
21636;SDS011;10980;49.596;6.142;2023-08-31T04:24:59;3.57;;;2.20;;
21636;SDS011;10980;49.596;6.142;2023-08-31T04:28:21;4.53;;;2.27;;
21636;SDS011;10980;49.596;6.142;2023-08-31T04:31:44;2.93;;;2.13;;
21636;SDS011;10980;49.596;6.142;2023-08-31T04:35:07;4.43;;;2.30;;
21636;SDS011;10980;49.596;6.142;2023-08-31T04:38:30;3.83;;;2.23;;
21636;SDS011;10980;49.596;6.142;2023-08-31T04:41:53;6.03;;;2.60;;
21636;SDS011;10980;49.596;6.142;2023-08-31T04:45:15;3.73;;;2.17;;
21636;SDS011;10980;49.596;6.142;2023-08-31T04:48:38;4.60;;;2.27;;
21636;SDS011;10980;49.596;6.142;2023-08-31T04:52:00;3.37;;;2.33;;
21636;SDS011;10980;49.596;6.142;2023-08-31T04:55:23;4.20;;;2.47;;
21636;SDS011;10980;49.596;6.142;2023-08-31T04:58:46;4.00;;;2.17;;
21636;SDS011;10980;49.596;6.142;2023-08-31T05:02:09;4.53;;;2.33;;
21636;SDS011;10980;49.596;6.142;2023-08-31T05:05:32;4.07;;;2.40;;
21636;SDS011;10980;49.596;6.142;2023-08-31T05:08:56;5.67;;;2.30;;
21636;SDS011;10980;49.596;6.142;2023-08-31T05:12:20;3.87;;;2.07;;
21636;SDS011;10980;49.596;6.142;2023-08-31T05:15:42;4.37;;;2.47;;
21636;SDS011;10980;49.596;6.142;2023-08-31T05:19:07;5.23;;;2.53;;
21636;SDS011;10980;49.596;6.142;2023-08-31T05:22:31;6.47;;;3.60;;
21636;SDS011;10980;49.596;6.142;2023-08-31T05:25:53;5.23;;;2.93;;
21636;SDS011;10980;49.596;6.142;2023-08-31T05:29:17;5.00;;;2.70;;
21636;SDS011;10980;49.596;6.142;2023-08-31T05:32:41;5.40;;;2.87;;
21636;SDS011;10980;49.596;6.142;2023-08-31T05:36:03;5.73;;;2.70;;
21636;SDS011;10980;49.596;6.142;2023-08-31T05:39:26;7.30;;;4.10;;
21636;SDS011;10980;49.596;6.142;2023-08-31T05:42:48;10.40;;;4.97;;
21636;SDS011;10980;49.596;6.142;2023-08-31T05:46:10;11.45;;;4.95;;
21636;SDS011;10980;49.596;6.142;2023-08-31T05:49:32;8.13;;;4.45;;
21636;SDS011;10980;49.596;6.142;2023-08-31T05:52:55;8.10;;;4.32;;
21636;SDS011;10980;49.596;6.142;2023-08-31T05:56:18;7.30;;;3.28;;
21636;SDS011;10980;49.596;6.142;2023-08-31T05:59:41;4.75;;;2.78;;
21636;SDS011;10980;49.596;6.142;2023-08-31T06:03:03;4.53;;;2.47;;
21636;SDS011;10980;49.596;6.142;2023-08-31T06:06:27;6.13;;;2.42;;
21636;SDS011;10980;49.596;6.142;2023-08-31T06:09:49;5.28;;;2.92;;
21636;SDS011;10980;49.596;6.142;2023-08-31T06:13:13;7.63;;;2.83;;
21636;SDS011;10980;49.596;6.142;2023-08-31T06:16:36;6.22;;;2.85;;
21636;SDS011;10980;49.596;6.142;2023-08-31T06:19:58;9.48;;;3.30;;
21636;SDS011;10980;49.596;6.142;2023-08-31T06:23:20;4.80;;;2.67;;
21636;SDS011;10980;49.596;6.142;2023-08-31T06:26:42;8.95;;;2.97;;
21636;SDS011;10980;49.596;6.142;2023-08-31T06:30:05;7.57;;;2.40;;
21636;SDS011;10980;49.596;6.142;2023-08-31T06:33:29;9.27;;;2.80;;
21636;SDS011;10980;49.596;6.142;2023-08-31T06:36:51;7.25;;;2.30;;
21636;SDS011;10980;49.596;6.142;2023-08-31T06:40:14;5.63;;;2.22;;
21636;SDS011;10980;49.596;6.142;2023-08-31T06:43:36;4.90;;;1.95;;
21636;SDS011;10980;49.596;6.142;2023-08-31T06:46:58;9.52;;;2.58;;
21636;SDS011;10980;49.596;6.142;2023-08-31T06:50:21;10.43;;;2.25;;
21636;SDS011;10980;49.596;6.142;2023-08-31T06:53:43;4.90;;;2.22;;
21636;SDS011;10980;49.596;6.142;2023-08-31T06:57:07;6.18;;;1.90;;
21636;SDS011;10980;49.596;6.142;2023-08-31T07:00:30;4.43;;;1.58;;
21636;SDS011;10980;49.596;6.142;2023-08-31T07:03:53;10.63;;;1.60;;
21636;SDS011;10980;49.596;6.142;2023-08-31T07:07:16;5.78;;;2.45;;
21636;SDS011;10980;49.596;6.142;2023-08-31T07:10:38;4.72;;;1.63;;
21636;SDS011;10980;49.596;6.142;2023-08-31T07:14:01;7.15;;;2.03;;
21636;SDS011;10980;49.596;6.142;2023-08-31T07:17:23;4.93;;;1.48;;
21636;SDS011;10980;49.596;6.142;2023-08-31T07:20:46;5.63;;;1.52;;
21636;SDS011;10980;49.596;6.142;2023-08-31T07:24:08;5.72;;;1.38;;
21636;SDS011;10980;49.596;6.142;2023-08-31T07:27:30;6.25;;;1.48;;
21636;SDS011;10980;49.596;6.142;2023-08-31T07:31:05;4.03;;;1.20;;
21636;SDS011;10980;49.596;6.142;2023-08-31T07:34:28;11.07;;;1.77;;
21636;SDS011;10980;49.596;6.142;2023-08-31T07:37:52;3.85;;;1.20;;
21636;SDS011;10980;49.596;6.142;2023-08-31T07:41:14;8.88;;;1.83;;
21636;SDS011;10980;49.596;6.142;2023-08-31T07:44:37;4.18;;;1.33;;
21636;SDS011;10980;49.596;6.142;2023-08-31T07:47:59;5.70;;;1.77;;
21636;SDS011;10980;49.596;6.142;2023-08-31T07:51:21;4.60;;;1.92;;
21636;SDS011;10980;49.596;6.142;2023-08-31T07:54:45;4.55;;;1.98;;
21636;SDS011;10980;49.596;6.142;2023-08-31T07:58:07;5.60;;;1.88;;
21636;SDS011;10980;49.596;6.142;2023-08-31T08:01:30;3.60;;;1.50;;
21636;SDS011;10980;49.596;6.142;2023-08-31T08:04:52;7.53;;;2.38;;
21636;SDS011;10980;49.596;6.142;2023-08-31T08:08:15;9.68;;;2.65;;
21636;SDS011;10980;49.596;6.142;2023-08-31T08:11:37;6.88;;;2.13;;
21636;SDS011;10980;49.596;6.142;2023-08-31T08:15:00;6.57;;;2.33;;
21636;SDS011;10980;49.596;6.142;2023-08-31T08:18:22;7.47;;;2.05;;
21636;SDS011;10980;49.596;6.142;2023-08-31T08:21:44;10.27;;;2.88;;
21636;SDS011;10980;49.596;6.142;2023-08-31T08:25:06;7.80;;;2.45;;
21636;SDS011;10980;49.596;6.142;2023-08-31T08:28:29;8.85;;;2.22;;
21636;SDS011;10980;49.596;6.142;2023-08-31T08:31:51;6.90;;;1.98;;
21636;SDS011;10980;49.596;6.142;2023-08-31T08:35:14;6.10;;;1.88;;
21636;SDS011;10980;49.596;6.142;2023-08-31T08:38:36;7.25;;;2.05;;
21636;SDS011;10980;49.596;6.142;2023-08-31T08:41:58;6.60;;;1.90;;
21636;SDS011;10980;49.596;6.142;2023-08-31T08:45:25;3.13;;;1.30;;
21636;SDS011;10980;49.596;6.142;2023-08-31T08:48:51;5.63;;;1.38;;
21636;SDS011;10980;49.596;6.142;2023-08-31T08:52:15;5.35;;;1.50;;
21636;SDS011;10980;49.596;6.142;2023-08-31T08:55:37;7.30;;;1.52;;
21636;SDS011;10980;49.596;6.142;2023-08-31T08:59:01;7.32;;;1.83;;
21636;SDS011;10980;49.596;6.142;2023-08-31T09:02:24;5.57;;;1.50;;
21636;SDS011;10980;49.596;6.142;2023-08-31T09:05:46;4.22;;;1.10;;
21636;SDS011;10980;49.596;6.142;2023-08-31T09:09:12;3.92;;;1.42;;
21636;SDS011;10980;49.596;6.142;2023-08-31T09:12:51;3.28;;;1.33;;
21636;SDS011;10980;49.596;6.142;2023-08-31T09:16:28;3.53;;;1.30;;
21636;SDS011;10980;49.596;6.142;2023-08-31T09:20:00;4.60;;;1.58;;
21636;SDS011;10980;49.596;6.142;2023-08-31T09:23:25;5.43;;;1.45;;
21636;SDS011;10980;49.596;6.142;2023-08-31T09:26:58;3.80;;;1.40;;
21636;SDS011;10980;49.596;6.142;2023-08-31T09:30:21;4.90;;;1.55;;
21636;SDS011;10980;49.596;6.142;2023-08-31T09:33:50;2.83;;;1.30;;
21636;SDS011;10980;49.596;6.142;2023-08-31T09:37:22;4.78;;;1.48;;
21636;SDS011;10980;49.596;6.142;2023-08-31T09:40:44;7.50;;;1.73;;
21636;SDS011;10980;49.596;6.142;2023-08-31T09:44:16;8.13;;;1.90;;
21636;SDS011;10980;49.596;6.142;2023-08-31T09:47:55;4.18;;;1.30;;
21636;SDS011;10980;49.596;6.142;2023-08-31T09:51:22;4.32;;;1.33;;
21636;SDS011;10980;49.596;6.142;2023-08-31T09:54:59;3.65;;;1.40;;
21636;SDS011;10980;49.596;6.142;2023-08-31T09:58:25;6.40;;;1.42;;
21636;SDS011;10980;49.596;6.142;2023-08-31T10:01:53;12.55;;;1.92;;
21636;SDS011;10980;49.596;6.142;2023-08-31T10:05:19;7.70;;;1.55;;
21636;SDS011;10980;49.596;6.142;2023-08-31T10:08:43;4.72;;;1.50;;
21636;SDS011;10980;49.596;6.142;2023-08-31T10:12:16;5.05;;;1.90;;
21636;SDS011;10980;49.596;6.142;2023-08-31T10:15:40;3.03;;;1.20;;
21636;SDS011;10980;49.596;6.142;2023-08-31T10:19:05;4.72;;;1.50;;
21636;SDS011;10980;49.596;6.142;2023-08-31T10:22:33;4.85;;;1.30;;
21636;SDS011;10980;49.596;6.142;2023-08-31T10:29:26;5.95;;;1.52;;
21636;SDS011;10980;49.596;6.142;2023-08-31T10:36:46;3.42;;;1.38;;
21636;SDS011;10980;49.596;6.142;2023-08-31T10:40:31;4.82;;;1.10;;
21636;SDS011;10980;49.596;6.142;2023-08-31T10:43:55;9.52;;;1.52;;
21636;SDS011;10980;49.596;6.142;2023-08-31T10:47:21;9.23;;;1.50;;
21636;SDS011;10980;49.596;6.142;2023-08-31T10:51:06;6.47;;;1.30;;
21636;SDS011;10980;49.596;6.142;2023-08-31T10:54:33;6.97;;;1.67;;
21636;SDS011;10980;49.596;6.142;2023-08-31T10:57:56;4.97;;;1.38;;
21636;SDS011;10980;49.596;6.142;2023-08-31T11:01:50;7.82;;;1.65;;
21636;SDS011;10980;49.596;6.142;2023-08-31T11:05:16;9.40;;;1.55;;
21636;SDS011;10980;49.596;6.142;2023-08-31T11:08:45;3.05;;;1.30;;
21636;SDS011;10980;49.596;6.142;2023-08-31T11:12:11;6.20;;;1.05;;
21636;SDS011;10980;49.596;6.142;2023-08-31T11:15:40;9.23;;;1.75;;
21636;SDS011;10980;49.596;6.142;2023-08-31T11:19:07;3.63;;;1.27;;
21636;SDS011;10980;49.596;6.142;2023-08-31T11:22:39;5.80;;;1.48;;
21636;SDS011;10980;49.596;6.142;2023-08-31T11:26:03;3.63;;;1.30;;
21636;SDS011;10980;49.596;6.142;2023-08-31T11:29:28;5.18;;;1.60;;
21636;SDS011;10980;49.596;6.142;2023-08-31T11:32:52;9.02;;;1.88;;
21636;SDS011;10980;49.596;6.142;2023-08-31T11:36:18;9.35;;;1.80;;
21636;SDS011;10980;49.596;6.142;2023-08-31T11:39:50;5.90;;;1.42;;
21636;SDS011;10980;49.596;6.142;2023-08-31T11:43:14;3.78;;;1.40;;
21636;SDS011;10980;49.596;6.142;2023-08-31T11:46:37;5.07;;;1.55;;
21636;SDS011;10980;49.596;6.142;2023-08-31T11:50:00;5.38;;;1.52;;
21636;SDS011;10980;49.596;6.142;2023-08-31T11:53:26;4.60;;;1.52;;
21636;SDS011;10980;49.596;6.142;2023-08-31T11:56:49;4.10;;;1.50;;
21636;SDS011;10980;49.596;6.142;2023-08-31T12:00:12;5.85;;;1.40;;
21636;SDS011;10980;49.596;6.142;2023-08-31T12:03:42;8.98;;;2.03;;
21636;SDS011;10980;49.596;6.142;2023-08-31T12:07:11;6.82;;;1.70;;
21636;SDS011;10980;49.596;6.142;2023-08-31T12:10:40;2.70;;;1.20;;
21636;SDS011;10980;49.596;6.142;2023-08-31T12:14:03;5.88;;;1.48;;
21636;SDS011;10980;49.596;6.142;2023-08-31T12:17:39;7.63;;;1.80;;
21636;SDS011;10980;49.596;6.142;2023-08-31T12:21:02;8.57;;;2.17;;
21636;SDS011;10980;49.596;6.142;2023-08-31T12:24:25;9.15;;;1.60;;
21636;SDS011;10980;49.596;6.142;2023-08-31T12:27:48;4.35;;;1.35;;
21636;SDS011;10980;49.596;6.142;2023-08-31T12:31:11;6.28;;;1.38;;
21636;SDS011;10980;49.596;6.142;2023-08-31T12:34:33;5.90;;;1.70;;
21636;SDS011;10980;49.596;6.142;2023-08-31T12:37:59;5.20;;;1.60;;
21636;SDS011;10980;49.596;6.142;2023-08-31T12:41:21;4.15;;;1.67;;
21636;SDS011;10980;49.596;6.142;2023-08-31T12:44:45;6.85;;;1.95;;
21636;SDS011;10980;49.596;6.142;2023-08-31T12:48:08;4.03;;;1.90;;
21636;SDS011;10980;49.596;6.142;2023-08-31T12:51:31;8.55;;;2.28;;
21636;SDS011;10980;49.596;6.142;2023-08-31T12:54:53;7.03;;;2.13;;
21636;SDS011;10980;49.596;6.142;2023-08-31T12:58:16;6.15;;;1.83;;
21636;SDS011;10980;49.596;6.142;2023-08-31T13:01:38;5.70;;;2.13;;
21636;SDS011;10980;49.596;6.142;2023-08-31T13:05:02;5.95;;;2.08;;
21636;SDS011;10980;49.596;6.142;2023-08-31T13:08:24;3.50;;;1.60;;
21636;SDS011;10980;49.596;6.142;2023-08-31T13:11:46;5.50;;;1.98;;
21636;SDS011;10980;49.596;6.142;2023-08-31T13:15:09;4.70;;;1.45;;
21636;SDS011;10980;49.596;6.142;2023-08-31T13:18:32;5.47;;;1.90;;
21636;SDS011;10980;49.596;6.142;2023-08-31T13:21:54;6.20;;;1.70;;
21636;SDS011;10980;49.596;6.142;2023-08-31T13:25:16;4.70;;;2.05;;
21636;SDS011;10980;49.596;6.142;2023-08-31T13:28:39;5.50;;;1.67;;
21636;SDS011;10980;49.596;6.142;2023-08-31T13:32:02;5.60;;;1.77;;
21636;SDS011;10980;49.596;6.142;2023-08-31T13:35:25;3.17;;;1.48;;
21636;SDS011;10980;49.596;6.142;2023-08-31T13:38:48;5.90;;;2.00;;
21636;SDS011;10980;49.596;6.142;2023-08-31T13:42:10;9.52;;;2.17;;
21636;SDS011;10980;49.596;6.142;2023-08-31T13:45:33;6.65;;;1.92;;
21636;SDS011;10980;49.596;6.142;2023-08-31T13:48:55;12.35;;;2.20;;
21636;SDS011;10980;49.596;6.142;2023-08-31T13:52:17;6.20;;;2.00;;
21636;SDS011;10980;49.596;6.142;2023-08-31T13:55:42;9.23;;;2.10;;
21636;SDS011;10980;49.596;6.142;2023-08-31T13:59:05;5.10;;;2.13;;
21636;SDS011;10980;49.596;6.142;2023-08-31T14:02:28;10.82;;;1.80;;
21636;SDS011;10980;49.596;6.142;2023-08-31T14:05:50;4.93;;;1.83;;
21636;SDS011;10980;49.596;6.142;2023-08-31T14:09:12;8.88;;;2.03;;
21636;SDS011;10980;49.596;6.142;2023-08-31T14:12:36;6.13;;;2.13;;
21636;SDS011;10980;49.596;6.142;2023-08-31T14:15:59;6.93;;;2.08;;
21636;SDS011;10980;49.596;6.142;2023-08-31T14:19:22;13.75;;;2.75;;
21636;SDS011;10980;49.596;6.142;2023-08-31T14:22:44;9.18;;;2.25;;
21636;SDS011;10980;49.596;6.142;2023-08-31T14:26:07;6.40;;;1.67;;
21636;SDS011;10980;49.596;6.142;2023-08-31T14:29:32;6.82;;;1.60;;
21636;SDS011;10980;49.596;6.142;2023-08-31T14:32:56;6.32;;;1.80;;
21636;SDS011;10980;49.596;6.142;2023-08-31T14:36:18;7.05;;;1.85;;
21636;SDS011;10980;49.596;6.142;2023-08-31T14:39:40;9.75;;;1.75;;
21636;SDS011;10980;49.596;6.142;2023-08-31T14:43:03;6.68;;;1.77;;
21636;SDS011;10980;49.596;6.142;2023-08-31T14:46:25;6.03;;;1.50;;
21636;SDS011;10980;49.596;6.142;2023-08-31T14:49:47;5.82;;;1.55;;
21636;SDS011;10980;49.596;6.142;2023-08-31T14:53:10;6.68;;;1.70;;
21636;SDS011;10980;49.596;6.142;2023-08-31T14:56:32;4.55;;;1.60;;
21636;SDS011;10980;49.596;6.142;2023-08-31T14:59:55;7.65;;;1.63;;
21636;SDS011;10980;49.596;6.142;2023-08-31T15:03:23;6.97;;;1.52;;
21636;SDS011;10980;49.596;6.142;2023-08-31T15:06:46;4.85;;;1.40;;
21636;SDS011;10980;49.596;6.142;2023-08-31T15:10:08;4.10;;;1.65;;
21636;SDS011;10980;49.596;6.142;2023-08-31T15:13:31;5.30;;;1.70;;
21636;SDS011;10980;49.596;6.142;2023-08-31T15:16:53;6.88;;;2.00;;
21636;SDS011;10980;49.596;6.142;2023-08-31T15:20:16;5.80;;;1.70;;
21636;SDS011;10980;49.596;6.142;2023-08-31T15:23:38;8.35;;;1.88;;
21636;SDS011;10980;49.596;6.142;2023-08-31T15:27:00;5.78;;;1.80;;
21636;SDS011;10980;49.596;6.142;2023-08-31T15:30:23;9.07;;;1.75;;
21636;SDS011;10980;49.596;6.142;2023-08-31T15:33:45;4.78;;;1.75;;
21636;SDS011;10980;49.596;6.142;2023-08-31T15:37:08;4.03;;;1.83;;
21636;SDS011;10980;49.596;6.142;2023-08-31T15:40:30;7.10;;;1.88;;
21636;SDS011;10980;49.596;6.142;2023-08-31T15:43:52;7.47;;;1.83;;
21636;SDS011;10980;49.596;6.142;2023-08-31T15:47:15;6.10;;;1.65;;
21636;SDS011;10980;49.596;6.142;2023-08-31T15:50:37;3.50;;;1.65;;
21636;SDS011;10980;49.596;6.142;2023-08-31T15:54:00;4.25;;;1.67;;
21636;SDS011;10980;49.596;6.142;2023-08-31T15:57:25;8.90;;;1.92;;
21636;SDS011;10980;49.596;6.142;2023-08-31T16:00:47;3.97;;;1.25;;
21636;SDS011;10980;49.596;6.142;2023-08-31T16:04:09;6.95;;;1.95;;
21636;SDS011;10980;49.596;6.142;2023-08-31T16:07:32;4.90;;;1.70;;
21636;SDS011;10980;49.596;6.142;2023-08-31T16:10:56;8.02;;;1.77;;
21636;SDS011;10980;49.596;6.142;2023-08-31T16:14:19;5.47;;;1.92;;
21636;SDS011;10980;49.596;6.142;2023-08-31T16:17:41;9.27;;;2.30;;
21636;SDS011;10980;49.596;6.142;2023-08-31T16:21:03;5.95;;;2.08;;
21636;SDS011;10980;49.596;6.142;2023-08-31T16:24:26;6.15;;;2.00;;
21636;SDS011;10980;49.596;6.142;2023-08-31T16:27:48;8.55;;;2.53;;
21636;SDS011;10980;49.596;6.142;2023-08-31T16:31:10;5.80;;;2.38;;
21636;SDS011;10980;49.596;6.142;2023-08-31T16:34:33;8.82;;;2.55;;
21636;SDS011;10980;49.596;6.142;2023-08-31T16:37:57;9.60;;;3.10;;
21636;SDS011;10980;49.596;6.142;2023-08-31T16:41:19;8.02;;;2.17;;
21636;SDS011;10980;49.596;6.142;2023-08-31T16:44:44;10.80;;;2.65;;
21636;SDS011;10980;49.596;6.142;2023-08-31T16:48:07;6.22;;;3.08;;
21636;SDS011;10980;49.596;6.142;2023-08-31T16:51:29;8.77;;;2.88;;
21636;SDS011;10980;49.596;6.142;2023-08-31T16:54:52;8.15;;;3.13;;
21636;SDS011;10980;49.596;6.142;2023-08-31T16:58:14;5.40;;;2.80;;
21636;SDS011;10980;49.596;6.142;2023-08-31T17:01:37;9.23;;;2.80;;
21636;SDS011;10980;49.596;6.142;2023-08-31T17:04:59;8.38;;;2.85;;
21636;SDS011;10980;49.596;6.142;2023-08-31T17:08:21;7.72;;;3.53;;
21636;SDS011;10980;49.596;6.142;2023-08-31T17:11:44;6.57;;;2.53;;
21636;SDS011;10980;49.596;6.142;2023-08-31T17:15:06;6.45;;;2.90;;
21636;SDS011;10980;49.596;6.142;2023-08-31T17:18:29;6.45;;;2.35;;
21636;SDS011;10980;49.596;6.142;2023-08-31T17:21:51;9.75;;;2.80;;
21636;SDS011;10980;49.596;6.142;2023-08-31T17:25:14;8.48;;;2.97;;
21636;SDS011;10980;49.596;6.142;2023-08-31T17:28:36;6.65;;;3.28;;
21636;SDS011;10980;49.596;6.142;2023-08-31T17:31:58;5.80;;;2.83;;
21636;SDS011;10980;49.596;6.142;2023-08-31T17:35:20;5.70;;;2.83;;
21636;SDS011;10980;49.596;6.142;2023-08-31T17:38:43;7.05;;;3.78;;
21636;SDS011;10980;49.596;6.142;2023-08-31T17:42:06;10.13;;;2.80;;
21636;SDS011;10980;49.596;6.142;2023-08-31T17:45:28;4.95;;;2.58;;
21636;SDS011;10980;49.596;6.142;2023-08-31T17:48:51;6.50;;;2.72;;
21636;SDS011;10980;49.596;6.142;2023-08-31T17:52:13;6.22;;;2.45;;
21636;SDS011;10980;49.596;6.142;2023-08-31T17:55:35;9.15;;;3.75;;
21636;SDS011;10980;49.596;6.142;2023-08-31T17:58:58;10.93;;;3.10;;
21636;SDS011;10980;49.596;6.142;2023-08-31T18:02:20;10.50;;;3.10;;
21636;SDS011;10980;49.596;6.142;2023-08-31T18:05:50;7.10;;;3.20;;
21636;SDS011;10980;49.596;6.142;2023-08-31T18:09:13;4.50;;;2.53;;
21636;SDS011;10980;49.596;6.142;2023-08-31T18:12:35;7.20;;;2.88;;
21636;SDS011;10980;49.596;6.142;2023-08-31T18:16:01;8.35;;;3.45;;
21636;SDS011;10980;49.596;6.142;2023-08-31T18:19:24;7.63;;;2.60;;
21636;SDS011;10980;49.596;6.142;2023-08-31T18:22:48;5.88;;;3.13;;
21636;SDS011;10980;49.596;6.142;2023-08-31T18:26:10;5.90;;;3.25;;
21636;SDS011;10980;49.596;6.142;2023-08-31T18:29:32;8.13;;;3.40;;
21636;SDS011;10980;49.596;6.142;2023-08-31T18:32:56;7.60;;;3.03;;
21636;SDS011;10980;49.596;6.142;2023-08-31T18:36:20;5.22;;;3.03;;
21636;SDS011;10980;49.596;6.142;2023-08-31T18:39:42;6.15;;;3.50;;
21636;SDS011;10980;49.596;6.142;2023-08-31T18:43:04;6.18;;;3.17;;
21636;SDS011;10980;49.596;6.142;2023-08-31T18:46:26;5.20;;;2.70;;
21636;SDS011;10980;49.596;6.142;2023-08-31T18:49:49;5.68;;;3.08;;
21636;SDS011;10980;49.596;6.142;2023-08-31T18:53:11;4.28;;;2.70;;
21636;SDS011;10980;49.596;6.142;2023-08-31T18:56:33;6.63;;;2.53;;
21636;SDS011;10980;49.596;6.142;2023-08-31T18:59:56;11.15;;;3.10;;
21636;SDS011;10980;49.596;6.142;2023-08-31T19:03:18;8.43;;;3.30;;
21636;SDS011;10980;49.596;6.142;2023-08-31T19:06:41;7.05;;;3.22;;
21636;SDS011;10980;49.596;6.142;2023-08-31T19:10:03;7.82;;;3.80;;
21636;SDS011;10980;49.596;6.142;2023-08-31T19:13:29;6.97;;;3.40;;
21636;SDS011;10980;49.596;6.142;2023-08-31T19:16:51;6.05;;;2.97;;
21636;SDS011;10980;49.596;6.142;2023-08-31T19:20:13;7.43;;;3.28;;
21636;SDS011;10980;49.596;6.142;2023-08-31T19:23:36;7.30;;;3.55;;
21636;SDS011;10980;49.596;6.142;2023-08-31T19:26:59;5.45;;;3.17;;
21636;SDS011;10980;49.596;6.142;2023-08-31T19:30:21;6.95;;;3.42;;
21636;SDS011;10980;49.596;6.142;2023-08-31T19:33:44;7.97;;;4.07;;
21636;SDS011;10980;49.596;6.142;2023-08-31T19:37:06;5.95;;;3.13;;
21636;SDS011;10980;49.596;6.142;2023-08-31T19:40:29;7.65;;;3.83;;
21636;SDS011;10980;49.596;6.142;2023-08-31T19:43:52;7.05;;;3.28;;
21636;SDS011;10980;49.596;6.142;2023-08-31T19:47:14;8.07;;;4.53;;
21636;SDS011;10980;49.596;6.142;2023-08-31T19:50:37;7.55;;;3.88;;
21636;SDS011;10980;49.596;6.142;2023-08-31T19:53:59;5.03;;;3.47;;
21636;SDS011;10980;49.596;6.142;2023-08-31T19:57:25;5.28;;;3.22;;
21636;SDS011;10980;49.596;6.142;2023-08-31T20:00:47;5.70;;;3.03;;
21636;SDS011;10980;49.596;6.142;2023-08-31T20:04:10;4.20;;;2.85;;
21636;SDS011;10980;49.596;6.142;2023-08-31T20:07:32;4.53;;;2.70;;
21636;SDS011;10980;49.596;6.142;2023-08-31T20:10:54;3.67;;;2.55;;
21636;SDS011;10980;49.596;6.142;2023-08-31T20:14:17;6.38;;;2.80;;
21636;SDS011;10980;49.596;6.142;2023-08-31T20:17:39;4.75;;;2.78;;
21636;SDS011;10980;49.596;6.142;2023-08-31T20:21:04;5.88;;;2.60;;
21636;SDS011;10980;49.596;6.142;2023-08-31T20:24:26;4.82;;;3.10;;
21636;SDS011;10980;49.596;6.142;2023-08-31T20:27:49;4.00;;;2.80;;
21636;SDS011;10980;49.596;6.142;2023-08-31T20:31:12;6.82;;;3.25;;
21636;SDS011;10980;49.596;6.142;2023-08-31T20:34:36;6.68;;;3.63;;
21636;SDS011;10980;49.596;6.142;2023-08-31T20:37:59;6.93;;;3.08;;
21636;SDS011;10980;49.596;6.142;2023-08-31T20:41:21;5.43;;;3.53;;
21636;SDS011;10980;49.596;6.142;2023-08-31T20:44:43;6.22;;;3.97;;